createdAt,value
2022-09-28T00:01:29.791Z,95028.94
2022-09-28T00:03:59.686Z,95031.91
2022-09-28T00:06:31.958Z,95025.94
2022-09-28T00:09:01.327Z,95019.47
2022-09-28T00:11:30.536Z,95018.63
2022-09-28T00:14:02.477Z,95015.41
2022-09-28T00:16:33.802Z,95007.31
2022-09-28T00:19:03.274Z,95011.09
2022-09-28T00:21:35.527Z,95008.38
2022-09-28T00:24:15.948Z,94998.41
2022-09-28T00:26:47.895Z,94997.84
2022-09-28T00:29:20.299Z,95002.97
2022-09-28T00:31:49.556Z,94994.53
2022-09-28T00:34:19.004Z,94989.94
2022-09-28T00:36:49.714Z,94969.44
2022-09-28T00:39:18.722Z,94983.19
2022-09-28T00:41:47.979Z,94964.53
2022-09-28T00:44:40.438Z,94968.03
2022-09-28T00:47:43.248Z,94969.88
2022-09-28T00:50:19.629Z,94965.28
2022-09-28T00:52:54.706Z,94957.97
2022-09-28T00:55:31.342Z,94966.13
2022-09-28T00:58:04.934Z,94961.75
2022-09-28T01:00:33.493Z,94956.84
2022-09-28T01:03:02.205Z,94943.88
2022-09-28T01:05:31.476Z,94944.91
2022-09-28T01:08:03.410Z,94929.47
2022-09-28T01:10:33.007Z,94920.28
2022-09-28T01:13:01.697Z,94908.44
2022-09-28T01:15:31.112Z,94906.28
2022-09-28T01:18:12.173Z,94900.63
2022-09-28T01:21:06.490Z,94904.09
2022-09-28T01:24:09.615Z,94893.59
2022-09-28T01:26:57.886Z,94895.19
2022-09-28T01:29:45.425Z,94881.19
2022-09-28T01:32:22.417Z,94880.06
2022-09-28T01:34:58.039Z,94877.38
2022-09-28T01:37:43.010Z,94870.38
2022-09-28T01:40:13.401Z,94866.56
2022-09-28T01:42:47.204Z,94859.81
2022-09-28T01:45:21.586Z,94855.22
2022-09-28T01:47:51.996Z,94857.16
2022-09-28T01:50:23.948Z,94847.16
2022-09-28T01:52:58.320Z,94841.22
2022-09-28T01:55:33.225Z,94842.06
2022-09-28T01:58:10.730Z,94831.50
2022-09-28T02:00:43.543Z,94835.31
2022-09-28T02:03:17.754Z,94828.56
2022-09-28T02:05:59.719Z,94827.78
2022-09-28T02:08:33.734Z,94815.91
2022-09-28T02:11:07.517Z,94825.66
2022-09-28T02:13:41.637Z,94808.66
2022-09-28T02:16:18.884Z,94806.78
2022-09-28T02:18:47.531Z,94806.25
2022-09-28T02:21:23.998Z,94796.81
2022-09-28T02:23:57.718Z,94791.66
2022-09-28T02:26:33.678Z,94789.81
2022-09-28T02:29:03.433Z,94778.19
2022-09-28T02:31:33.392Z,94779.81
2022-09-28T02:34:02.522Z,94771.19
2022-09-28T02:36:31.220Z,94761.75
2022-09-28T02:39:02.695Z,94761.75
2022-09-28T02:41:49.950Z,94768.50
2022-09-28T02:44:38.437Z,94759.03
2022-09-28T02:47:18.075Z,94753.41
2022-09-28T02:49:55.939Z,94741.78
2022-09-28T02:52:42.158Z,94735.06
2022-09-28T02:55:21.085Z,94733.69
2022-09-28T02:58:04.574Z,94740.44
2022-09-28T03:00:44.119Z,94739.63
2022-09-28T03:03:18.994Z,94725.59
2022-09-28T03:05:57.794Z,94728.56
2022-09-28T03:08:32.058Z,94713.19
2022-09-28T03:11:05.554Z,94718.56
2022-09-28T03:13:35.468Z,94718.56
2022-09-28T03:16:14.411Z,94715.06
2022-09-28T03:18:45.825Z,94710.72
2022-09-28T03:21:15.350Z,94707.75
2022-09-28T03:23:44.116Z,94703.97
2022-09-28T03:26:13.575Z,94690.22
2022-09-28T03:28:42.709Z,94689.66
2022-09-28T03:31:17.471Z,94682.94
2022-09-28T03:33:45.787Z,94677.25
2022-09-28T03:36:15.536Z,94676.16
2022-09-28T03:38:44.245Z,94684.00
2022-09-28T03:41:12.779Z,94675.63
2022-09-28T03:43:44.264Z,94665.91
2022-09-28T03:46:14.747Z,94656.22
2022-09-28T03:48:49.745Z,94661.31
2022-09-28T03:51:18.091Z,94658.34
2022-09-28T03:53:46.931Z,94653.50
2022-09-28T03:56:17.397Z,94656.72
2022-09-28T03:58:46.884Z,94647.81
2022-09-28T04:01:17.926Z,94651.06
2022-09-28T04:03:55.354Z,94646.75
2022-09-28T04:06:24.688Z,94634.84
2022-09-28T04:08:53.905Z,94637.31
2022-09-28T04:11:22.257Z,94631.63
2022-09-28T04:13:51.242Z,94633.53
2022-09-28T04:16:19.918Z,94627.59
2022-09-28T04:19:00.176Z,94623.81
2022-09-28T04:21:53.687Z,94625.97
2022-09-28T04:24:22.607Z,94612.47
2022-09-28T04:26:51.048Z,94620.84
2022-09-28T04:29:20.145Z,94622.72
2022-09-28T04:31:57.387Z,94618.13
2022-09-28T04:34:39.589Z,94622.72
2022-09-28T04:37:10.498Z,94619.22
2022-09-28T04:39:43.116Z,94612.72
2022-09-28T04:42:15.239Z,94610.84
2022-09-28T04:44:44.005Z,94615.66
2022-09-28T04:47:14.041Z,94608.94
2022-09-28T04:50:10.772Z,94615.16
2022-09-28T04:52:59.425Z,94615.16
2022-09-28T04:55:32.081Z,94600.31
2022-09-28T04:58:02.518Z,94610.56
2022-09-28T05:00:35.932Z,94596.53
2022-09-28T05:03:24.399Z,94584.88
2022-09-28T05:06:14.922Z,94584.34
2022-09-28T05:08:47.213Z,94579.22
2022-09-28T05:11:16.554Z,94591.38
2022-09-28T05:13:46.668Z,94580.81
2022-09-28T05:16:18.032Z,94578.38
2022-09-28T05:19:07.312Z,94582.41
2022-09-28T05:21:37.160Z,94585.09
2022-09-28T05:24:07.595Z,94579.41
2022-09-28T05:26:39.535Z,94585.34
2022-09-28T05:29:09.539Z,94581.03
2022-09-28T05:31:57.485Z,94578.88
2022-09-28T05:34:46.947Z,94581.00
2022-09-28T05:37:23.191Z,94584.50
2022-09-28T05:39:51.561Z,94572.91
2022-09-28T05:42:20.417Z,94576.19
2022-09-28T05:44:49.234Z,94577.22
2022-09-28T05:47:18.429Z,94567.00
2022-09-28T05:49:47.637Z,94570.22
2022-09-28T05:52:16.074Z,94570.78
2022-09-28T05:54:46.929Z,94573.72
2022-09-28T05:57:16.010Z,94572.13
2022-09-28T05:59:44.895Z,94567.78
2022-09-28T06:02:13.331Z,94570.78
2022-09-28T06:04:42.607Z,94572.38
2022-09-28T06:07:12.053Z,94553.47
2022-09-28T06:09:40.927Z,94553.47
2022-09-28T06:12:18.345Z,94552.44
2022-09-28T06:14:51.946Z,94558.66
2022-09-28T06:17:20.326Z,94556.19
2022-09-28T06:19:57.641Z,94539.19
2022-09-28T06:22:52.103Z,94547.84
2022-09-28T06:25:21.964Z,94552.44
2022-09-28T06:28:02.841Z,94564.59
2022-09-28T06:30:33.274Z,94565.16
2022-09-28T06:33:03.227Z,94553.50
2022-09-28T06:35:34.014Z,94530.88
2022-09-28T06:38:03.349Z,94557.84
2022-09-28T06:40:33.054Z,94550.81
2022-09-28T06:43:07.267Z,94553.47
2022-09-28T06:45:55.315Z,94549.41
2022-09-28T06:48:43.092Z,94547.50
2022-09-28T06:51:14.623Z,94555.59
2022-09-28T06:53:59.681Z,94559.16
2022-09-28T06:57:03.081Z,94558.66
2022-09-28T06:59:33.587Z,94573.75
2022-09-28T07:02:02.471Z,94568.91
2022-09-28T07:04:57.388Z,94571.88
2022-09-28T07:07:45.132Z,94568.38
2022-09-28T07:10:27.761Z,94573.22
2022-09-28T07:13:47.676Z,94578.31
2022-09-28T07:16:12.362Z,94577.28
2022-09-28T07:18:42.286Z,94579.69
2022-09-28T07:21:21.748Z,94578.31
2022-09-28T07:23:54.928Z,94582.63
2022-09-28T07:26:27.056Z,94585.31
2022-09-28T07:29:10.973Z,94588.81
2022-09-28T07:32:00.133Z,94594.00
2022-09-28T07:34:48.885Z,94603.16
2022-09-28T07:37:27.499Z,94601.81
2022-09-28T07:40:19.213Z,94593.94
2022-09-28T07:42:48.335Z,94590.13
2022-09-28T07:45:17.228Z,94594.41
2022-09-28T07:47:47.654Z,94603.84
2022-09-28T07:50:34.484Z,94606.03
2022-09-28T07:53:30.131Z,94601.69
2022-09-28T07:56:11.912Z,94603.84
2022-09-28T07:58:56.044Z,94607.84
2022-09-28T08:01:54.046Z,94609.19
2022-09-28T08:04:25.629Z,94612.97
2022-09-28T08:06:54.163Z,94607.56
2022-09-28T08:09:22.549Z,94615.91
2022-09-28T08:12:15.469Z,94621.84
2022-09-28T08:15:00.145Z,94615.94
2022-09-28T08:17:50.061Z,94614.56
2022-09-28T08:20:40.135Z,94619.41
2022-09-28T08:23:11.460Z,94615.91
2022-09-28T08:25:49.189Z,94619.66
2022-09-28T08:28:18.923Z,94627.81
2022-09-28T08:30:50.172Z,94626.47
2022-09-28T08:33:45.413Z,94628.91
2022-09-28T08:36:38.874Z,94621.91
2022-09-28T08:39:26.296Z,94612.47
2022-09-28T08:42:32.336Z,94630.78
2022-09-28T08:45:24.934Z,94629.69
2022-09-28T08:48:36.239Z,94628.34
2022-09-28T08:51:40.766Z,94640.78
2022-09-28T08:54:29.028Z,94651.25
2022-09-28T08:57:03.168Z,94656.38
2022-09-28T08:59:47.924Z,94665.28
2022-09-28T09:02:25.523Z,94674.47
2022-09-28T09:04:56.991Z,94693.13
2022-09-28T09:08:05.973Z,94692.31
2022-09-28T09:10:46.965Z,94693.94
2022-09-28T09:14:03.089Z,94706.13
2022-09-28T09:16:44.121Z,94712.59
2022-09-28T09:19:54.552Z,94705.03
2022-09-28T09:22:40.748Z,94709.34
2022-09-28T09:25:20.005Z,94714.69
2022-09-28T09:28:07.922Z,94704.94
2022-09-28T09:30:47.572Z,94712.25
2022-09-28T09:33:39.561Z,94720.59
2022-09-28T09:36:41.301Z,94723.31
2022-09-28T09:39:50.704Z,94713.88
2022-09-28T09:42:51.265Z,94715.75
2022-09-28T09:46:00.510Z,94711.06
2022-09-28T09:48:40.089Z,94710.75
2022-09-28T09:51:19.097Z,94706.41
2022-09-28T09:53:54.321Z,94693.59
2022-09-28T09:56:32.157Z,94701.09
2022-09-28T09:59:36.528Z,94679.94
2022-09-28T10:02:24.859Z,94703.63
2022-09-28T10:05:06.059Z,94704.44
2022-09-28T10:07:43.632Z,94700.50
2022-09-28T10:10:17.022Z,94706.59
2022-09-28T10:12:52.568Z,94717.09
2022-09-28T10:15:25.720Z,94712.94
2022-09-28T10:18:14.441Z,94719.16
2022-09-28T10:21:01.380Z,94727.38
2022-09-28T10:23:43.960Z,94721.47
2022-09-28T10:26:18.719Z,94735.25
2022-09-28T10:28:55.103Z,94729.53
2022-09-28T10:31:40.499Z,94728.72
2022-09-28T10:34:17.010Z,94718.38
2022-09-28T10:36:55.647Z,94719.59
2022-09-28T10:39:30.724Z,94711.44
2022-09-28T10:42:03.556Z,94734.78
2022-09-28T10:44:34.557Z,94735.63
2022-09-28T10:47:20.739Z,94744.84
2022-09-28T10:49:51.927Z,94745.31
2022-09-28T10:52:37.079Z,94761.03
2022-09-28T10:55:26.421Z,94746.34
2022-09-28T10:57:55.969Z,94752.06
2022-09-28T11:00:37.310Z,94752.06
2022-09-28T11:03:28.392Z,94765.03
2022-09-28T11:06:03.683Z,94756.09
2022-09-28T11:08:38.769Z,94762.75
2022-09-28T11:11:11.472Z,94775.84
2022-09-28T11:13:46.395Z,94753.84
2022-09-28T11:16:25.731Z,94777.03
2022-09-28T11:18:58.787Z,94775.13
2022-09-28T11:21:31.159Z,94778.41
2022-09-28T11:24:08.926Z,94770.22
2022-09-28T11:26:44.909Z,94771.31
2022-09-28T11:29:28.133Z,94777.50
2022-09-28T11:32:16.961Z,94759.28
2022-09-28T11:35:07.696Z,94767.88
2022-09-28T11:37:56.192Z,94764.53
2022-09-28T11:40:53.143Z,94777.84
2022-09-28T11:43:42.407Z,94778.91
2022-09-28T11:46:21.609Z,94779.38
2022-09-28T11:48:56.566Z,94764.56
2022-09-28T11:51:31.846Z,94768.84
2022-09-28T11:54:10.882Z,94765.47
2022-09-28T11:56:43.107Z,94772.00
2022-09-28T11:59:15.927Z,94774.84
2022-09-28T12:01:52.717Z,94760.78
2022-09-28T12:04:32.820Z,94776.72
2022-09-28T12:07:08.028Z,94775.91
2022-09-28T12:09:43.406Z,94768.84
2022-09-28T12:12:27.165Z,94780.97
2022-09-28T12:15:02.117Z,94780.16
2022-09-28T12:17:37.253Z,94775.03
2022-09-28T12:20:16.421Z,94778.56
2022-09-28T12:22:56.165Z,94775.59
2022-09-28T12:25:26.384Z,94790.44
2022-09-28T12:27:59.694Z,94776.31
2022-09-28T12:30:31.945Z,94787.69
2022-09-28T12:33:05.618Z,94783.88
2022-09-28T12:35:48.892Z,94784.16
2022-09-28T12:38:32.423Z,94796.06
2022-09-28T12:41:11.353Z,94786.88
2022-09-28T12:44:11.635Z,94787.50
2022-09-28T12:47:14.761Z,94787.03
2022-09-28T12:53:03.077Z,94796.84
2022-09-28T12:55:49.977Z,94800.00
2022-09-28T12:58:33.494Z,94801.06
2022-09-28T13:01:10.461Z,94800.53
2022-09-28T13:04:18.480Z,94806.50
2022-09-28T13:06:58.091Z,94811.06
2022-09-28T13:09:29.400Z,94804.59
2022-09-28T13:12:14.557Z,94811.19
2022-09-28T13:15:10.149Z,94810.63
2022-09-28T13:17:50.316Z,94814.13
2022-09-28T13:20:39.339Z,94807.81
2022-09-28T13:23:16.133Z,94811.63
2022-09-28T13:25:50.556Z,94808.25
2022-09-28T13:28:26.266Z,94800.75
2022-09-28T13:33:37.047Z,94796.44
2022-09-28T13:36:26.030Z,94796.78
2022-09-28T13:38:56.663Z,94788.78
2022-09-28T13:41:31.661Z,94806.19
2022-09-28T13:44:33.258Z,94812.34
2022-09-28T13:47:20.954Z,94807.28
2022-09-28T13:50:04.335Z,94799.75
2022-09-28T13:52:44.962Z,94803.31
2022-09-28T13:55:30.272Z,94805.19
2022-09-28T13:58:04.471Z,94800.41
2022-09-28T14:00:39.117Z,94800.16
2022-09-28T14:03:26.594Z,94798.97
2022-09-28T14:06:11.411Z,94790.66
2022-09-28T14:08:44.967Z,94802.31
2022-09-28T14:11:43.592Z,94796.78
2022-09-28T14:14:49.565Z,94804.13
2022-09-28T14:17:54.572Z,94791.53
2022-09-28T14:20:27.230Z,94785.59
2022-09-28T14:23:21.214Z,94788.78
2022-09-28T14:26:07.325Z,94793.81
2022-09-28T14:28:50.050Z,94799.50
2022-09-28T14:31:26.796Z,94793.00
2022-09-28T14:33:58.165Z,94786.19
2022-09-28T14:36:56.546Z,94794.25
2022-09-28T14:39:48.061Z,94782.81
2022-09-28T14:42:22.121Z,94784.66
2022-09-28T14:45:35.416Z,94791.13
2022-09-28T14:48:20.499Z,94790.31
2022-09-28T14:50:50.376Z,94778.50
2022-09-28T14:53:25.853Z,94788.69
2022-09-28T14:55:59.331Z,94799.31
2022-09-28T14:58:30.345Z,94805.63
2022-09-28T15:01:03.514Z,94799.41
2022-09-28T15:03:36.893Z,94804.06
2022-09-28T15:06:05.873Z,94807.00
2022-09-28T15:08:40.136Z,94793.22
2022-09-28T15:11:16.081Z,94794.88
2022-09-28T15:13:45.174Z,94795.13
2022-09-28T15:16:16.495Z,94798.06
2022-09-28T15:19:08.778Z,94797.03
2022-09-28T15:21:39.557Z,94805.72
2022-09-28T15:24:31.810Z,94807.94
2022-09-28T15:27:01.084Z,94806.91
2022-09-28T15:29:33.504Z,94801.53
2022-09-28T15:32:04.397Z,94801.81
2022-09-28T15:34:52.440Z,94805.09
2022-09-28T15:37:25.651Z,94802.69
2022-09-28T15:39:57.449Z,94801.59
2022-09-28T15:42:26.121Z,94800.78
2022-09-28T15:45:03.528Z,94812.72
2022-09-28T15:47:32.968Z,94817.69
2022-09-28T15:50:04.159Z,94828.00
2022-09-28T15:52:38.749Z,94825.31
2022-09-28T15:55:21.051Z,94821.81
2022-09-28T15:57:50.230Z,94824.03
2022-09-28T16:00:29.793Z,94829.44
2022-09-28T16:03:01.697Z,94825.69
2022-09-28T16:05:36.074Z,94828.38
2022-09-28T16:08:06.479Z,94837.84
2022-09-28T16:10:38.087Z,94832.69
2022-09-28T16:13:24.804Z,94832.38
2022-09-28T16:15:59.925Z,94841.72
2022-09-28T16:18:32.788Z,94842.00
2022-09-28T16:21:27.831Z,94848.81
2022-09-28T16:23:57.557Z,94843.16
2022-09-28T16:26:33.562Z,94832.69
2022-09-28T16:29:09.913Z,94849.72
2022-09-28T16:31:41.801Z,94849.72
2022-09-28T16:34:19.811Z,94849.13
2022-09-28T16:36:51.330Z,94854.03
2022-09-28T16:39:20.855Z,94847.31
2022-09-28T16:41:55.879Z,94851.16
2022-09-28T16:44:27.439Z,94850.38
2022-09-28T16:47:00.233Z,94852.59
2022-09-28T16:49:32.605Z,94853.69
2022-09-28T16:52:01.261Z,94848.84
2022-09-28T16:54:48.380Z,94852.09
2022-09-28T16:57:18.835Z,94857.28
2022-09-28T16:59:47.719Z,94851.00
2022-09-28T17:02:42.071Z,94846.69
2022-09-28T17:05:09.184Z,94844.25
2022-09-28T17:07:42.247Z,94846.94
2022-09-28T17:10:17.570Z,94823.97
2022-09-28T17:12:48.473Z,94840.41
2022-09-28T17:15:19.629Z,94851.56
2022-09-28T17:17:50.893Z,94853.16
2022-09-28T17:20:22.919Z,94856.38
2022-09-28T17:22:53.875Z,94855.81
2022-09-28T17:25:24.351Z,94862.59
2022-09-28T17:27:57.706Z,94862.59
2022-09-28T17:30:26.537Z,94860.69
2022-09-28T17:32:55.784Z,94858.50
2022-09-28T17:35:25.542Z,94860.41
2022-09-28T17:37:55.736Z,94865.00
2022-09-28T17:40:28.795Z,94878.84
2022-09-28T17:43:00.036Z,94877.22
2022-09-28T17:45:31.729Z,94880.19
2022-09-28T17:48:00.697Z,94879.94
2022-09-28T17:50:32.817Z,94874.25
2022-09-28T17:53:06.412Z,94878.38
2022-09-28T17:55:37.043Z,94883.03
2022-09-28T17:58:18.008Z,94880.31
2022-09-28T18:00:51.795Z,94877.09
2022-09-28T18:03:22.700Z,94876.56
2022-09-28T18:05:59.318Z,94880.09
2022-09-28T18:08:28.544Z,94870.56
2022-09-28T18:10:58.031Z,94869.47
2022-09-28T18:13:28.714Z,94875.97
2022-09-28T18:15:57.429Z,94876.00
2022-09-28T18:18:27.249Z,94882.50
2022-09-28T18:20:56.212Z,94888.50
2022-09-28T18:23:24.686Z,94886.88
2022-09-28T18:25:54.104Z,94890.13
2022-09-28T18:28:23.064Z,94888.00
2022-09-28T18:30:53.738Z,94898.84
2022-09-28T18:33:22.831Z,94890.16
2022-09-28T18:35:53.059Z,94897.75
2022-09-28T18:38:25.548Z,94901.28
2022-09-28T18:40:55.871Z,94903.47
2022-09-28T18:43:25.333Z,94913.50
2022-09-28T18:45:58.506Z,94907.56
2022-09-28T18:48:29.793Z,94912.97
2022-09-28T18:50:58.592Z,94920.53
2022-09-28T18:53:27.125Z,94918.94
2022-09-28T18:55:57.323Z,94931.94
2022-09-28T18:58:25.783Z,94927.06
2022-09-28T19:01:08.459Z,94930.34
2022-09-28T19:03:46.039Z,94937.66
2022-09-28T19:06:17.829Z,94924.34
2022-09-28T19:08:52.707Z,94936.28
2022-09-28T19:11:23.042Z,94946.31
2022-09-28T19:13:51.555Z,94943.31
2022-09-28T19:16:22.931Z,94943.31
2022-09-28T19:18:53.926Z,94946.03
2022-09-28T19:21:22.633Z,94947.41
2022-09-28T19:23:52.597Z,94955.00
2022-09-28T19:26:23.448Z,94962.31
2022-09-28T19:28:52.106Z,94945.56
2022-09-28T19:31:21.914Z,94953.63
2022-09-28T19:33:51.927Z,94962.59
2022-09-28T19:36:23.947Z,94964.47
2022-09-28T19:38:53.873Z,94965.31
2022-09-28T19:41:44.431Z,94976.97
2022-09-28T19:44:24.909Z,94974.25
2022-09-28T19:46:55.865Z,94969.94
2022-09-28T19:49:28.366Z,94975.06
2022-09-28T19:52:14.759Z,94971.84
2022-09-28T19:54:45.590Z,94973.44
2022-09-28T19:57:16.341Z,94982.38
2022-09-28T19:59:49.473Z,94983.47
2022-09-28T20:02:21.153Z,94985.09
2022-09-28T20:04:51.943Z,94992.97
2022-09-28T20:07:20.457Z,94997.88
2022-09-28T20:09:49.663Z,94994.88
2022-09-28T20:12:18.613Z,95002.19
2022-09-28T20:14:47.098Z,95002.44
2022-09-28T20:17:16.265Z,95009.47
2022-09-28T20:19:44.841Z,95010.03
2022-09-28T20:22:17.301Z,95001.38
2022-09-28T20:24:48.516Z,95011.66
2022-09-28T20:27:24.320Z,95010.84
2022-09-28T20:29:54.936Z,95013.00
2022-09-28T20:32:23.552Z,95017.06
2022-09-28T20:34:52.786Z,95012.75
2022-09-28T20:37:25.299Z,95029.78
2022-09-28T20:39:54.562Z,95020.84
2022-09-28T20:42:23.572Z,95021.94
2022-09-28T20:44:52.340Z,95032.78
2022-09-28T20:47:20.842Z,95028.44
2022-09-28T20:49:50.320Z,95025.75
2022-09-28T20:52:18.810Z,95030.06
2022-09-28T20:54:51.285Z,95044.97
2022-09-28T20:57:20.173Z,95052.03
2022-09-28T20:59:53.770Z,95038.22
2022-09-28T21:02:23.764Z,95040.41
2022-09-28T21:04:52.403Z,95022.00
2022-09-28T21:07:21.774Z,95038.50
2022-09-28T21:09:52.045Z,95044.47
2022-09-28T21:12:21.329Z,95037.69
2022-09-28T21:14:49.804Z,95045.00
2022-09-28T21:17:18.633Z,95050.66
2022-09-28T21:19:47.153Z,95042.03
2022-09-28T21:22:15.945Z,95043.91
2022-09-28T21:24:44.820Z,95049.31
2022-09-28T21:27:14.643Z,95048.25
2022-09-28T21:29:43.076Z,95055.81
2022-09-28T21:32:11.941Z,95054.72
2022-09-28T21:34:40.752Z,95044.72
2022-09-28T21:37:09.663Z,95049.03
2022-09-28T21:39:38.109Z,95055.00
2022-09-28T21:42:07.257Z,95057.44
2022-09-28T21:44:37.047Z,95058.00
2022-09-28T21:47:05.956Z,95059.06
2022-09-28T21:49:34.336Z,95054.47
2022-09-28T21:52:03.747Z,95058.25
2022-09-28T21:54:32.143Z,95052.84
2022-09-28T21:57:01.996Z,95053.13
2022-09-28T21:59:30.908Z,95056.66
2022-09-28T22:02:00.776Z,95060.41
2022-09-28T22:04:29.635Z,95061.50
2022-09-28T22:06:58.114Z,95068.56
2022-09-28T22:09:27.568Z,95073.44
2022-09-28T22:11:56.009Z,95070.44
2022-09-28T22:14:24.860Z,95062.59
2022-09-28T22:16:53.742Z,95064.22
2022-09-28T22:19:23.585Z,95061.53
2022-09-28T22:21:52.433Z,95063.88
2022-09-28T22:24:21.322Z,95066.88
2022-09-28T22:26:49.809Z,95065.81
2022-09-28T22:29:18.874Z,95074.44
2022-09-28T22:31:47.287Z,95070.66
2022-09-28T22:34:16.160Z,95069.63
2022-09-28T22:36:46.758Z,95070.16
2022-09-28T22:39:15.493Z,95065.28
2022-09-28T22:41:43.972Z,95060.16
2022-09-28T22:44:13.100Z,95059.34
2022-09-28T22:46:41.576Z,95053.13
2022-09-28T22:49:12.039Z,95060.41
2022-09-28T22:51:40.680Z,95058.47
2022-09-28T22:54:15.896Z,95064.16
2022-09-28T22:56:45.203Z,95054.69
2022-09-28T22:59:14.038Z,95063.88
2022-09-28T23:01:42.582Z,95061.19
2022-09-28T23:04:12.099Z,95055.75
2022-09-28T23:06:41.342Z,95060.63
2022-09-28T23:09:11.189Z,95057.91
2022-09-28T23:11:40.549Z,95059.28
2022-09-28T23:14:12.506Z,95060.09
2022-09-28T23:16:41.557Z,95058.47
2022-09-28T23:19:10.013Z,95068.50
2022-09-28T23:21:40.033Z,95062.53
2022-09-28T23:24:11.911Z,95057.69
2022-09-28T23:26:41.157Z,95059.84
2022-09-28T23:29:11.847Z,95068.25
2022-09-28T23:31:41.323Z,95057.69
2022-09-28T23:34:11.489Z,95057.19
2022-09-28T23:36:41.196Z,95069.88
2022-09-28T23:39:12.173Z,95063.13
2022-09-28T23:41:41.343Z,95071.50
2022-09-28T23:44:10.107Z,95072.59
2022-09-28T23:46:39.451Z,95052.00
2022-09-28T23:49:10.017Z,95062.28
2022-09-28T23:51:39.184Z,95062.00
2022-09-28T23:54:07.905Z,95056.59
2022-09-28T23:56:38.527Z,95061.97
2022-09-28T23:59:07.296Z,95061.72
